createdAt,value
2018-05-07T00:00:46.317Z,0.00
2018-05-07T00:01:46.392Z,0.00
2018-05-07T00:02:46.325Z,0.00
2018-05-07T00:03:46.338Z,0.00
2018-05-07T00:04:46.335Z,0.00
2018-05-07T00:05:46.363Z,0.00
2018-05-07T00:06:46.342Z,0.00
2018-05-07T00:07:46.345Z,0.00
2018-05-07T00:08:46.350Z,0.00
2018-05-07T00:09:46.354Z,0.00
2018-05-07T00:10:46.388Z,0.00
2018-05-07T00:11:46.455Z,0.00
2018-05-07T00:12:46.367Z,0.00
2018-05-07T00:13:46.403Z,0.00
2018-05-07T00:14:46.377Z,0.00
2018-05-07T00:15:46.397Z,0.00
2018-05-07T00:16:46.383Z,0.00
2018-05-07T00:17:46.389Z,0.00
2018-05-07T00:18:46.391Z,0.00
2018-05-07T00:19:46.395Z,0.00
2018-05-07T00:20:46.399Z,0.00
2018-05-07T00:21:46.404Z,0.00
2018-05-07T00:22:46.410Z,0.00
2018-05-07T00:23:46.412Z,0.00
2018-05-07T00:24:46.415Z,0.00
2018-05-07T00:25:46.421Z,0.00
2018-05-07T00:26:46.435Z,0.00
2018-05-07T00:27:46.428Z,0.00
2018-05-07T00:28:46.465Z,0.00
2018-05-07T00:29:46.437Z,0.00
2018-05-07T00:30:46.440Z,0.00
2018-05-07T00:31:46.446Z,0.00
2018-05-07T00:32:46.448Z,0.00
2018-05-07T00:33:46.455Z,0.00
2018-05-07T00:34:46.457Z,0.00
2018-05-07T00:35:46.460Z,0.00
2018-05-07T00:36:46.464Z,0.00
2018-05-07T00:37:46.467Z,0.00
2018-05-07T00:38:46.472Z,0.00
2018-05-07T00:39:46.477Z,0.00
2018-05-07T00:40:46.479Z,0.00
2018-05-07T00:41:46.484Z,0.00
2018-05-07T00:42:46.488Z,0.00
2018-05-07T00:43:46.491Z,0.00
2018-05-07T00:44:46.495Z,0.00
2018-05-07T00:45:46.499Z,0.00
2018-05-07T00:46:46.505Z,0.00
2018-05-07T00:47:46.506Z,0.00
2018-05-07T00:48:46.511Z,0.00
2018-05-07T00:49:46.515Z,0.00
2018-05-07T00:50:46.519Z,0.00
2018-05-07T00:51:46.523Z,0.00
2018-05-07T00:52:46.526Z,0.00
2018-05-07T00:53:46.529Z,0.00
2018-05-07T00:54:46.533Z,0.00
2018-05-07T00:55:46.536Z,0.00
2018-05-07T00:56:46.541Z,0.00
2018-05-07T00:57:46.545Z,0.00
2018-05-07T00:58:46.549Z,0.00
2018-05-07T00:59:46.553Z,0.00
2018-05-07T01:00:46.561Z,0.00
2018-05-07T01:01:46.560Z,0.00
2018-05-07T01:02:46.564Z,0.00
2018-05-07T01:03:46.566Z,0.00
2018-05-07T01:04:46.571Z,0.00
2018-05-07T01:05:46.574Z,0.00
2018-05-07T01:06:46.578Z,0.00
2018-05-07T01:07:46.581Z,0.00
2018-05-07T01:08:46.585Z,0.00
2018-05-07T01:09:46.589Z,0.00
2018-05-07T01:10:46.593Z,0.00
2018-05-07T01:11:46.596Z,0.00
2018-05-07T01:12:46.639Z,0.00
2018-05-07T01:13:46.605Z,0.00
2018-05-07T01:14:46.608Z,0.00
2018-05-07T01:15:46.610Z,0.00
2018-05-07T01:16:46.615Z,0.00
2018-05-07T01:17:46.619Z,0.00
2018-05-07T01:18:46.624Z,0.00
2018-05-07T01:19:46.627Z,0.00
2018-05-07T01:20:46.629Z,0.00
2018-05-07T01:21:46.632Z,0.00
2018-05-07T01:22:46.637Z,0.00
2018-05-07T01:23:46.638Z,0.00
2018-05-07T01:24:46.643Z,0.00
2018-05-07T01:25:46.647Z,0.00
2018-05-07T01:26:46.651Z,0.00
2018-05-07T01:27:46.655Z,0.00
2018-05-07T01:28:46.656Z,0.00
2018-05-07T01:29:46.663Z,0.00
2018-05-07T01:30:46.664Z,0.00
2018-05-07T01:31:46.667Z,0.00
2018-05-07T01:32:46.671Z,0.00
2018-05-07T01:33:46.673Z,0.00
2018-05-07T01:34:46.677Z,0.00
2018-05-07T01:35:46.679Z,0.00
2018-05-07T01:36:46.683Z,0.00
2018-05-07T01:37:46.686Z,0.00
2018-05-07T01:38:46.691Z,0.00
2018-05-07T01:39:46.694Z,0.00
2018-05-07T01:40:46.696Z,0.00
2018-05-07T01:41:46.699Z,0.00
2018-05-07T01:42:46.703Z,0.00
2018-05-07T01:43:46.706Z,0.00
2018-05-07T01:44:46.710Z,0.00
2018-05-07T01:45:46.716Z,0.00
2018-05-07T01:46:46.717Z,0.00
2018-05-07T01:47:46.719Z,0.00
2018-05-07T01:48:46.722Z,0.00
2018-05-07T01:49:46.727Z,0.00
2018-05-07T01:50:46.729Z,0.00
2018-05-07T01:51:46.734Z,0.00
2018-05-07T01:52:46.734Z,0.00
2018-05-07T01:53:46.738Z,0.00
2018-05-07T01:54:46.742Z,0.00
2018-05-07T01:55:46.743Z,0.00
2018-05-07T01:56:46.747Z,0.00
2018-05-07T01:57:46.751Z,0.00
2018-05-07T01:58:46.753Z,0.00
2018-05-07T01:59:46.755Z,0.00
2018-05-07T02:00:46.759Z,0.00
2018-05-07T02:01:46.768Z,0.00
2018-05-07T02:02:46.765Z,0.00
2018-05-07T02:03:46.769Z,0.00
2018-05-07T02:04:46.772Z,0.00
2018-05-07T02:05:46.775Z,0.00
2018-05-07T02:06:46.778Z,0.00
2018-05-07T02:07:46.780Z,0.00
2018-05-07T02:08:46.784Z,0.00
2018-05-07T02:09:46.786Z,0.00
2018-05-07T02:10:46.790Z,0.00
2018-05-07T02:11:46.797Z,0.00
2018-05-07T02:12:46.796Z,0.00
2018-05-07T02:13:46.799Z,0.00
2018-05-07T02:14:46.802Z,0.00
2018-05-07T02:15:46.804Z,0.00
2018-05-07T02:16:46.808Z,0.00
2018-05-07T02:17:46.811Z,0.00
2018-05-07T02:18:46.814Z,0.00
2018-05-07T02:19:46.817Z,0.00
2018-05-07T02:20:46.820Z,0.00
2018-05-07T02:21:46.826Z,0.00
2018-05-07T02:22:46.826Z,0.00
2018-05-07T02:23:46.828Z,0.00
2018-05-07T02:24:46.833Z,0.00
2018-05-07T02:25:46.835Z,0.00
2018-05-07T02:26:46.838Z,0.00
2018-05-07T02:27:46.840Z,0.00
2018-05-07T02:28:46.844Z,0.00
2018-05-07T02:29:46.846Z,0.00
2018-05-07T02:30:46.852Z,0.00
2018-05-07T02:31:46.853Z,0.00
2018-05-07T02:32:46.854Z,0.00
2018-05-07T02:33:46.859Z,0.00
2018-05-07T02:34:46.862Z,0.00
2018-05-07T02:35:46.866Z,0.00
2018-05-07T02:36:46.868Z,0.00
2018-05-07T02:37:46.870Z,0.00
2018-05-07T02:38:46.873Z,0.00
2018-05-07T02:39:46.875Z,0.00
2018-05-07T02:40:46.879Z,0.00
2018-05-07T02:41:46.882Z,0.00
2018-05-07T02:42:46.885Z,0.00
2018-05-07T02:43:46.887Z,0.00
2018-05-07T02:44:46.889Z,0.00
2018-05-07T02:45:46.894Z,0.00
2018-05-07T02:46:46.897Z,0.00
2018-05-07T02:47:46.898Z,0.00
2018-05-07T02:48:46.901Z,0.00
2018-05-07T02:49:46.905Z,0.00
2018-05-07T02:50:46.908Z,0.00
2018-05-07T02:51:46.911Z,0.00
2018-05-07T02:52:46.913Z,0.00
2018-05-07T02:53:46.915Z,0.00
2018-05-07T02:54:46.920Z,0.00
2018-05-07T02:55:46.921Z,0.00
2018-05-07T02:56:46.925Z,0.00
2018-05-07T02:57:46.928Z,0.00
2018-05-07T02:58:46.932Z,0.00
2018-05-07T02:59:46.936Z,0.00
2018-05-07T03:00:46.935Z,0.00
2018-05-07T03:01:47.016Z,0.00
2018-05-07T03:02:46.941Z,0.00
2018-05-07T03:03:46.943Z,0.00
2018-05-07T03:04:46.946Z,0.00
2018-05-07T03:05:46.949Z,0.00
2018-05-07T03:06:46.953Z,0.00
2018-05-07T03:07:46.957Z,0.00
2018-05-07T03:08:46.958Z,0.00
2018-05-07T03:09:46.961Z,0.00
2018-05-07T03:10:46.964Z,0.00
2018-05-07T03:11:46.966Z,0.00
2018-05-07T03:12:46.970Z,4.00
2018-05-07T03:13:46.978Z,4.00
2018-05-07T03:14:46.977Z,0.00
2018-05-07T03:15:46.976Z,4.00
2018-05-07T03:16:46.980Z,4.00
2018-05-07T03:17:46.982Z,4.00
2018-05-07T03:18:46.985Z,4.00
2018-05-07T03:19:46.990Z,4.00
2018-05-07T03:20:46.992Z,4.00
2018-05-07T03:21:46.994Z,4.00
2018-05-07T03:22:46.999Z,4.00
2018-05-07T03:23:46.998Z,8.00
2018-05-07T03:24:47.028Z,8.00
2018-05-07T03:25:47.004Z,8.00
2018-05-07T03:26:47.007Z,12.00
2018-05-07T03:27:47.008Z,16.00
2018-05-07T03:28:47.014Z,16.00
2018-05-07T03:29:47.020Z,20.00
2018-05-07T03:30:47.018Z,24.00
2018-05-07T03:31:47.020Z,24.00
2018-05-07T03:32:47.022Z,28.00
2018-05-07T03:33:47.052Z,28.00
2018-05-07T03:34:47.028Z,36.00
2018-05-07T03:35:47.029Z,40.00
2018-05-07T03:36:47.033Z,44.00
2018-05-07T03:37:47.035Z,52.00
2018-05-07T03:38:47.038Z,56.00
2018-05-07T03:39:47.040Z,64.00
2018-05-07T03:40:47.044Z,72.00
2018-05-07T03:41:47.047Z,76.00
2018-05-07T03:42:47.048Z,88.00
2018-05-07T03:43:47.050Z,96.00
2018-05-07T03:44:47.056Z,108.00
2018-05-07T03:45:47.057Z,116.00
2018-05-07T03:46:47.059Z,128.00
2018-05-07T03:47:47.060Z,140.00
2018-05-07T03:48:47.075Z,148.00
2018-05-07T03:49:47.066Z,164.00
2018-05-07T03:50:47.069Z,176.00
2018-05-07T03:51:47.071Z,192.00
2018-05-07T03:52:47.074Z,208.00
2018-05-07T03:53:47.076Z,224.00
2018-05-07T03:54:47.079Z,240.00
2018-05-07T03:55:47.081Z,256.00
2018-05-07T03:56:47.085Z,272.00
2018-05-07T03:57:47.086Z,292.00
2018-05-07T03:58:47.094Z,312.00
2018-05-07T03:59:47.123Z,332.00
2018-05-07T04:00:47.093Z,352.00
2018-05-07T04:01:47.097Z,372.00
2018-05-07T04:02:47.099Z,392.00
2018-05-07T04:03:47.101Z,416.00
2018-05-07T04:04:47.103Z,436.00
2018-05-07T04:05:47.106Z,460.00
2018-05-07T04:06:47.108Z,480.00
2018-05-07T04:07:47.110Z,504.00
2018-05-07T04:08:47.113Z,524.00
2018-05-07T04:09:47.116Z,548.00
2018-05-07T04:10:47.119Z,572.00
2018-05-07T04:11:47.121Z,592.00
2018-05-07T04:12:47.124Z,616.00
2018-05-07T04:13:47.125Z,640.00
2018-05-07T04:14:47.129Z,668.00
2018-05-07T04:15:47.131Z,688.00
2018-05-07T04:16:47.133Z,716.00
2018-05-07T04:17:47.135Z,736.00
2018-05-07T04:18:47.141Z,760.00
2018-05-07T04:19:47.138Z,784.00
2018-05-07T04:20:47.143Z,812.00
2018-05-07T04:21:47.151Z,828.00
2018-05-07T04:22:47.147Z,852.00
2018-05-07T04:23:47.149Z,876.00
2018-05-07T04:24:47.152Z,904.00
2018-05-07T04:25:47.155Z,924.00
2018-05-07T04:26:47.157Z,948.00
2018-05-07T04:27:47.159Z,972.00
2018-05-07T04:28:47.162Z,996.00
2018-05-07T04:29:47.165Z,1016.00
2018-05-07T04:30:47.167Z,1040.00
2018-05-07T04:31:47.169Z,1060.00
2018-05-07T04:32:47.172Z,1084.00
2018-05-07T04:33:47.188Z,1108.00
2018-05-07T04:34:47.177Z,1132.00
2018-05-07T04:35:47.178Z,1148.00
2018-05-07T04:36:47.181Z,1168.00
2018-05-07T04:37:47.184Z,1196.00
2018-05-07T04:38:47.187Z,1216.00
2018-05-07T04:39:47.188Z,1236.00
2018-05-07T04:40:47.191Z,1256.00
2018-05-07T04:41:47.193Z,1280.00
2018-05-07T04:42:47.196Z,1300.00
2018-05-07T04:43:47.199Z,1320.00
2018-05-07T04:44:47.201Z,1340.00
2018-05-07T04:45:47.203Z,1364.00
2018-05-07T04:46:47.207Z,1384.00
2018-05-07T04:47:47.206Z,1404.00
2018-05-07T04:48:47.213Z,1424.00
2018-05-07T04:49:47.213Z,1448.00
2018-05-07T04:50:47.216Z,1468.00
2018-05-07T04:51:47.217Z,1484.00
2018-05-07T04:52:47.221Z,1504.00
2018-05-07T04:53:47.223Z,1524.00
2018-05-07T04:54:47.226Z,1548.00
2018-05-07T04:55:47.227Z,1564.00
2018-05-07T04:56:47.230Z,1584.00
2018-05-07T04:57:47.234Z,1604.00
2018-05-07T04:58:47.236Z,1624.00
2018-05-07T04:59:47.243Z,1648.00
2018-05-07T05:00:47.240Z,1664.00
2018-05-07T05:01:47.243Z,1684.00
2018-05-07T05:02:47.246Z,1704.00
2018-05-07T05:03:47.248Z,1724.00
2018-05-07T05:04:47.250Z,1748.00
2018-05-07T05:05:47.253Z,1764.00
2018-05-07T05:06:47.256Z,1784.00
2018-05-07T05:07:47.257Z,1816.00
2018-05-07T05:08:47.261Z,1828.00
2018-05-07T05:09:47.264Z,1848.00
2018-05-07T05:10:47.266Z,1876.00
2018-05-07T05:11:47.268Z,1892.00
2018-05-07T05:12:47.272Z,1908.00
2018-05-07T05:13:47.273Z,1932.00
2018-05-07T05:14:47.277Z,1940.00
2018-05-07T05:15:47.279Z,1964.00
2018-05-07T05:16:47.282Z,1984.00
2018-05-07T05:17:47.284Z,1996.00
2018-05-07T05:18:47.287Z,2024.00
2018-05-07T05:19:47.289Z,2044.00
2018-05-07T05:20:47.292Z,2068.00
2018-05-07T05:21:47.295Z,2092.00
2018-05-07T05:22:47.297Z,2112.00
2018-05-07T05:23:47.301Z,2140.00
2018-05-07T05:24:47.303Z,2160.00
2018-05-07T05:25:47.305Z,2184.00
2018-05-07T05:26:47.309Z,2208.00
2018-05-07T05:27:47.312Z,2204.00
2018-05-07T05:28:47.314Z,2252.00
2018-05-07T05:29:47.315Z,2276.00
2018-05-07T05:30:47.319Z,2296.00
2018-05-07T05:31:47.321Z,2320.00
2018-05-07T05:32:47.324Z,2340.00
2018-05-07T05:33:47.327Z,2372.00
2018-05-07T05:34:47.330Z,2392.00
2018-05-07T05:35:47.333Z,2412.00
2018-05-07T05:36:47.334Z,2424.00
2018-05-07T05:37:47.340Z,2464.00
2018-05-07T05:38:47.345Z,2480.00
2018-05-07T05:39:47.344Z,2504.00
2018-05-07T05:40:47.352Z,2504.00
2018-05-07T05:41:47.350Z,2532.00
2018-05-07T05:42:47.353Z,2564.00
2018-05-07T05:43:47.372Z,2568.00
2018-05-07T05:44:47.360Z,2576.00
2018-05-07T05:45:47.362Z,2600.00
2018-05-07T05:46:47.365Z,2620.00
2018-05-07T05:47:47.367Z,2636.00
2018-05-07T05:48:47.371Z,2660.00
2018-05-07T05:49:47.374Z,2672.00
2018-05-07T05:50:47.377Z,2692.00
2018-05-07T05:51:47.379Z,2700.00
2018-05-07T05:52:47.383Z,2716.00
2018-05-07T05:53:47.386Z,2740.00
2018-05-07T05:54:47.389Z,2760.00
2018-05-07T05:55:47.392Z,2768.00
2018-05-07T05:56:47.395Z,2784.00
2018-05-07T05:57:47.399Z,2804.00
2018-05-07T05:58:47.403Z,2812.00
2018-05-07T05:59:47.404Z,2828.00
2018-05-07T06:00:47.407Z,2844.00
2018-05-07T06:01:47.410Z,2860.00
2018-05-07T06:02:47.414Z,2872.00
2018-05-07T06:03:47.458Z,2896.00
2018-05-07T06:04:47.419Z,2904.00
2018-05-07T06:05:47.425Z,2932.00
2018-05-07T06:06:47.428Z,2928.00
2018-05-07T06:07:47.431Z,2948.00
2018-05-07T06:08:47.435Z,2976.00
2018-05-07T06:09:47.438Z,2980.00
2018-05-07T06:10:47.442Z,2996.00
2018-05-07T06:11:47.443Z,3000.00
2018-05-07T06:12:47.447Z,3028.00
2018-05-07T06:13:47.452Z,3040.00
2018-05-07T06:14:47.558Z,3044.00
2018-05-07T06:15:47.457Z,3060.00
2018-05-07T06:16:47.462Z,3088.00
2018-05-07T06:17:47.465Z,3092.00
2018-05-07T06:18:47.469Z,3104.00
2018-05-07T06:19:47.471Z,3108.00
2018-05-07T06:20:47.476Z,3116.00
2018-05-07T06:21:47.478Z,3120.00
2018-05-07T06:22:47.484Z,3120.00
2018-05-07T06:23:47.486Z,3176.00
2018-05-07T06:24:47.490Z,3168.00
2018-05-07T06:25:47.494Z,3168.00
2018-05-07T06:26:47.496Z,3176.00
2018-05-07T06:27:47.498Z,3180.00
2018-05-07T06:28:47.503Z,3184.00
2018-05-07T06:29:47.507Z,3212.00
2018-05-07T06:30:47.518Z,3212.00
2018-05-07T06:31:47.518Z,3216.00
2018-05-07T06:32:47.521Z,3244.00
2018-05-07T06:33:47.522Z,3260.00
2018-05-07T06:34:47.526Z,3256.00
2018-05-07T06:35:47.529Z,3264.00
2018-05-07T06:36:47.536Z,3288.00
2018-05-07T06:37:47.537Z,3292.00
2018-05-07T06:38:47.541Z,3304.00
2018-05-07T06:39:47.544Z,3340.00
2018-05-07T06:40:47.548Z,3332.00
2018-05-07T06:41:47.552Z,3348.00
2018-05-07T06:42:47.555Z,3372.00
2018-05-07T06:43:47.560Z,3376.00
2018-05-07T06:44:47.563Z,3384.00
2018-05-07T06:45:47.649Z,3388.00
2018-05-07T06:46:47.572Z,3404.00
2018-05-07T06:47:47.575Z,3408.00
2018-05-07T06:48:47.586Z,3424.00
2018-05-07T06:49:47.587Z,3424.00
2018-05-07T06:50:47.591Z,3444.00
2018-05-07T06:51:47.592Z,3444.00
2018-05-07T06:52:47.596Z,3460.00
2018-05-07T06:53:47.602Z,3464.00
2018-05-07T06:54:47.605Z,3484.00
2018-05-07T06:55:47.607Z,3500.00
2018-05-07T06:56:47.612Z,3512.00
2018-05-07T06:57:47.616Z,3520.00
2018-05-07T06:58:47.623Z,3536.00
2018-05-07T06:59:47.624Z,3544.00
2018-05-07T07:00:47.629Z,3548.00
2018-05-07T07:01:47.634Z,3556.00
2018-05-07T07:02:47.699Z,3584.00
2018-05-07T07:03:47.645Z,3584.00
2018-05-07T07:04:47.647Z,3600.00
2018-05-07T07:05:47.650Z,3604.00
2018-05-07T07:06:47.654Z,3604.00
2018-05-07T07:07:47.660Z,3620.00
2018-05-07T07:08:47.663Z,3632.00
2018-05-07T07:09:47.667Z,3648.00
2018-05-07T07:10:47.672Z,3656.00
2018-05-07T07:11:47.682Z,3672.00
2018-05-07T07:12:47.686Z,3676.00
2018-05-07T07:13:47.685Z,3680.00
2018-05-07T07:14:47.692Z,3704.00
2018-05-07T07:15:47.693Z,3712.00
2018-05-07T07:16:47.699Z,3736.00
2018-05-07T07:17:47.703Z,3752.00
2018-05-07T07:18:47.707Z,3764.00
2018-05-07T07:19:47.718Z,3772.00
2018-05-07T07:20:47.722Z,3788.00
2018-05-07T07:21:47.799Z,3808.00
2018-05-07T07:22:47.727Z,3820.00
2018-05-07T07:23:47.730Z,3832.00
2018-05-07T07:24:47.735Z,3844.00
2018-05-07T07:25:47.742Z,3856.00
2018-05-07T07:26:47.745Z,3876.00
2018-05-07T07:27:47.749Z,3892.00
2018-05-07T07:28:47.753Z,3904.00
2018-05-07T07:29:47.761Z,3916.00
2018-05-07T07:30:47.764Z,3932.00
2018-05-07T07:31:47.768Z,3952.00
2018-05-07T07:32:47.774Z,3968.00
2018-05-07T07:33:47.865Z,4008.00
2018-05-07T07:34:47.786Z,4008.00
2018-05-07T07:35:47.791Z,4028.00
2018-05-07T07:36:47.793Z,4044.00
2018-05-07T07:37:47.801Z,4036.00
2018-05-07T07:38:47.804Z,4084.00
2018-05-07T07:39:47.808Z,4104.00
2018-05-07T07:40:47.814Z,4124.00
2018-05-07T07:41:47.820Z,4156.00
2018-05-07T07:42:47.825Z,4184.00
2018-05-07T07:43:47.829Z,4224.00
2018-05-07T07:44:47.834Z,4260.00
2018-05-07T07:45:47.840Z,4292.00
2018-05-07T07:46:47.846Z,4332.00
2018-05-07T07:47:47.851Z,4384.00
2018-05-07T07:48:47.856Z,4460.00
2018-05-07T07:49:47.862Z,4784.00
2018-05-07T07:50:47.867Z,26976.00
2018-05-07T07:51:47.871Z,69632.00
2018-05-07T07:52:47.886Z,97408.00
2018-05-07T07:53:47.899Z,97600.00
2018-05-07T07:54:47.890Z,95904.00
2018-05-07T07:55:47.896Z,95968.00
2018-05-07T07:56:47.904Z,92928.00
2018-05-07T07:57:47.911Z,90624.00
2018-05-07T07:58:47.920Z,93056.00
2018-05-07T07:59:47.927Z,95456.00
2018-05-07T08:00:47.937Z,92864.00
2018-05-07T08:01:47.948Z,92288.00
2018-05-07T08:02:47.958Z,92576.00
2018-05-07T08:03:47.968Z,95328.00
2018-05-07T08:04:47.981Z,95008.00
2018-05-07T08:05:47.991Z,92800.00
2018-05-07T08:06:48.003Z,92736.00
2018-05-07T08:07:48.017Z,94240.00
2018-05-07T08:08:48.035Z,95488.00
2018-05-07T08:09:48.046Z,94752.00
2018-05-07T08:10:48.055Z,94720.00
2018-05-07T08:11:48.070Z,93792.00
2018-05-07T08:12:48.083Z,91040.00
2018-05-07T08:13:48.098Z,94400.00
2018-05-07T08:14:48.112Z,95808.00
2018-05-07T08:15:48.126Z,95296.00
2018-05-07T08:16:48.141Z,93952.00
2018-05-07T08:17:48.158Z,92192.00
2018-05-07T08:18:48.171Z,93344.00
2018-05-07T08:19:48.184Z,95040.00
2018-05-07T08:20:48.199Z,97344.00
2018-05-07T08:21:48.215Z,95072.00
2018-05-07T08:22:48.229Z,95328.00
2018-05-07T08:23:48.244Z,95168.00
2018-05-07T08:24:48.323Z,93088.00
2018-05-07T08:25:48.274Z,93696.00
2018-05-07T08:26:48.295Z,91712.00
2018-05-07T08:27:48.305Z,90688.00
2018-05-07T08:28:48.321Z,92960.00
2018-05-07T08:29:48.337Z,94528.00
2018-05-07T08:30:48.353Z,92064.00
2018-05-07T08:31:48.369Z,90016.00
2018-05-07T08:32:48.385Z,88800.00
2018-05-07T08:33:48.401Z,85920.00
2018-05-07T08:34:48.419Z,81920.00
2018-05-07T08:35:48.434Z,83360.00
2018-05-07T08:36:48.464Z,87808.00
2018-05-07T08:37:48.466Z,87168.00
2018-05-07T08:38:48.483Z,86240.00
2018-05-07T08:39:48.498Z,86272.00
2018-05-07T08:40:48.515Z,89632.00
2018-05-07T08:41:48.532Z,89408.00
2018-05-07T08:42:48.550Z,87712.00
2018-05-07T08:43:48.565Z,89472.00
2018-05-07T08:44:48.581Z,89984.00
2018-05-07T08:45:48.599Z,87552.00
2018-05-07T08:46:48.615Z,86944.00
2018-05-07T08:47:48.634Z,87360.00
2018-05-07T08:48:48.650Z,84768.00
2018-05-07T08:49:48.667Z,84224.00
2018-05-07T08:50:48.701Z,85632.00
2018-05-07T08:51:48.701Z,85472.00
2018-05-07T08:52:48.750Z,84768.00
2018-05-07T08:53:48.736Z,84256.00
2018-05-07T08:54:48.753Z,82848.00
2018-05-07T08:55:48.770Z,82720.00
2018-05-07T08:56:48.786Z,83008.00
2018-05-07T08:57:48.804Z,83904.00
2018-05-07T08:58:48.821Z,81344.00
2018-05-07T08:59:48.839Z,81792.00
2018-05-07T09:00:48.859Z,83840.00
2018-05-07T09:01:48.876Z,82720.00
2018-05-07T09:02:48.893Z,82656.00
2018-05-07T09:03:48.909Z,82016.00
2018-05-07T09:04:48.928Z,84032.00
2018-05-07T09:05:48.945Z,83520.00
2018-05-07T09:06:48.962Z,83776.00
2018-05-07T09:07:48.980Z,85056.00
2018-05-07T09:08:48.997Z,82112.00
2018-05-07T09:09:49.019Z,78144.00
2018-05-07T09:10:49.034Z,77248.00
2018-05-07T09:11:49.052Z,76224.00
2018-05-07T09:12:49.069Z,76192.00
2018-05-07T09:13:49.087Z,74592.00
2018-05-07T09:14:49.105Z,71936.00
2018-05-07T09:15:49.123Z,68288.00
2018-05-07T09:16:49.141Z,72224.00
2018-05-07T09:17:49.158Z,73952.00
2018-05-07T09:18:49.175Z,73376.00
2018-05-07T09:19:49.192Z,75072.00
2018-05-07T09:20:49.211Z,62656.00
2018-05-07T09:21:49.228Z,36096.00
2018-05-07T09:22:49.246Z,26720.00
2018-05-07T09:23:49.263Z,26272.00
2018-05-07T09:24:49.335Z,25920.00
2018-05-07T09:25:49.299Z,25888.00
2018-05-07T09:26:49.317Z,25504.00
2018-05-07T09:27:49.335Z,25568.00
2018-05-07T09:28:49.354Z,25248.00
2018-05-07T09:29:49.371Z,25280.00
2018-05-07T09:30:49.389Z,25696.00
2018-05-07T09:31:49.407Z,25440.00
2018-05-07T09:32:49.425Z,25312.00
2018-05-07T09:33:49.446Z,25344.00
2018-05-07T09:34:49.467Z,25280.00
2018-05-07T09:35:49.478Z,25344.00
2018-05-07T09:36:49.497Z,25600.00
2018-05-07T09:37:49.515Z,26048.00
2018-05-07T09:38:49.533Z,27136.00
2018-05-07T09:39:49.552Z,28448.00
2018-05-07T09:40:49.569Z,28928.00
2018-05-07T09:41:49.587Z,30016.00
2018-05-07T09:42:49.605Z,32288.00
2018-05-07T09:43:49.622Z,35520.00
2018-05-07T09:44:49.641Z,38784.00
2018-05-07T09:45:49.659Z,41504.00
2018-05-07T09:46:49.678Z,40928.00
2018-05-07T09:47:49.694Z,38496.00
2018-05-07T09:48:49.712Z,38080.00
2018-05-07T09:49:49.730Z,35872.00
2018-05-07T09:50:49.748Z,33216.00
2018-05-07T09:51:49.765Z,32480.00
2018-05-07T09:52:49.782Z,31168.00
2018-05-07T09:53:49.800Z,31392.00
2018-05-07T09:54:49.817Z,32000.00
2018-05-07T09:55:49.834Z,30976.00
2018-05-07T09:56:49.920Z,29600.00
2018-05-07T09:57:49.869Z,28320.00
2018-05-07T09:58:49.891Z,28256.00
2018-05-07T09:59:49.905Z,28480.00
2018-05-07T10:00:49.922Z,27968.00
2018-05-07T10:01:49.940Z,27776.00
2018-05-07T10:02:49.958Z,27136.00
2018-05-07T10:03:49.974Z,26816.00
2018-05-07T10:04:49.996Z,26304.00
2018-05-07T10:05:50.009Z,25856.00
2018-05-07T10:06:50.028Z,26272.00
2018-05-07T10:07:50.043Z,27040.00
2018-05-07T10:08:50.063Z,26560.00
2018-05-07T10:09:50.078Z,25856.00
2018-05-07T10:10:50.096Z,25120.00
2018-05-07T10:11:50.112Z,24832.00
2018-05-07T10:12:50.130Z,24928.00
2018-05-07T10:13:50.147Z,25440.00
2018-05-07T10:14:50.165Z,25856.00
2018-05-07T10:15:50.181Z,25824.00
2018-05-07T10:16:50.200Z,26304.00
2018-05-07T10:17:50.218Z,26560.00
2018-05-07T10:18:50.236Z,26560.00
2018-05-07T10:19:50.249Z,26848.00
2018-05-07T10:20:50.266Z,26816.00
2018-05-07T10:21:50.284Z,27040.00
2018-05-07T10:22:50.300Z,27424.00
2018-05-07T10:23:50.316Z,27744.00
2018-05-07T10:24:50.334Z,28768.00
2018-05-07T10:25:50.350Z,28960.00
2018-05-07T10:26:50.367Z,29056.00
2018-05-07T10:27:50.383Z,30080.00
2018-05-07T10:28:50.400Z,31360.00
2018-05-07T10:29:50.431Z,34176.00
2018-05-07T10:30:50.440Z,37888.00
2018-05-07T10:31:50.450Z,41120.00
2018-05-07T10:32:50.466Z,45088.00
2018-05-07T10:33:50.483Z,51264.00
2018-05-07T10:34:50.508Z,57728.00
2018-05-07T10:35:50.515Z,64192.00
2018-05-07T10:36:50.533Z,68896.00
2018-05-07T10:37:50.548Z,63680.00
2018-05-07T10:38:50.565Z,53728.00
2018-05-07T10:39:50.580Z,45440.00
2018-05-07T10:40:50.597Z,39264.00
2018-05-07T10:41:50.612Z,34720.00
2018-05-07T10:42:50.713Z,31200.00
2018-05-07T10:43:50.645Z,28160.00
2018-05-07T10:44:50.666Z,25536.00
2018-05-07T10:45:50.678Z,22816.00
2018-05-07T10:46:50.694Z,20032.00
2018-05-07T10:47:50.709Z,17856.00
2018-05-07T10:48:50.724Z,15988.00
2018-05-07T10:49:50.740Z,14904.00
2018-05-07T10:50:50.756Z,14008.00
2018-05-07T10:51:50.773Z,13316.00
2018-05-07T10:52:50.788Z,12740.00
2018-05-07T10:53:50.803Z,12212.00
2018-05-07T10:54:50.819Z,11880.00
2018-05-07T10:55:50.835Z,11656.00
2018-05-07T10:56:50.849Z,11428.00
2018-05-07T10:57:50.864Z,11236.00
2018-05-07T10:58:50.881Z,11196.00
2018-05-07T10:59:50.896Z,11092.00
2018-05-07T11:00:50.911Z,10900.00
2018-05-07T11:01:50.927Z,10708.00
2018-05-07T11:02:50.943Z,10536.00
2018-05-07T11:03:50.958Z,10396.00
2018-05-07T11:04:50.972Z,9868.00
2018-05-07T11:05:50.987Z,7636.00
2018-05-07T11:06:51.003Z,6708.00
2018-05-07T11:07:51.019Z,6624.00
2018-05-07T11:08:51.031Z,6576.00
2018-05-07T11:09:51.048Z,7520.00
2018-05-07T11:10:51.061Z,7612.00
2018-05-07T11:11:51.074Z,7128.00
2018-05-07T11:12:51.090Z,6492.00
2018-05-07T11:13:51.104Z,6688.00
2018-05-07T11:14:51.118Z,6436.00
2018-05-07T11:15:51.132Z,6396.00
2018-05-07T11:16:51.145Z,6492.00
2018-05-07T11:17:51.159Z,7592.00
2018-05-07T11:18:51.173Z,6236.00
2018-05-07T11:19:51.243Z,6296.00
2018-05-07T11:20:51.198Z,6476.00
2018-05-07T11:21:51.212Z,6512.00
2018-05-07T11:22:51.224Z,6568.00
2018-05-07T11:23:51.237Z,6624.00
2018-05-07T11:24:51.250Z,6652.00
2018-05-07T11:25:51.263Z,6236.00
2018-05-07T11:26:51.279Z,6252.00
2018-05-07T11:27:51.287Z,6208.00
2018-05-07T11:28:51.300Z,6064.00
2018-05-07T11:29:51.312Z,5868.00
2018-05-07T11:30:51.324Z,5892.00
2018-05-07T11:31:51.336Z,5784.00
2018-05-07T11:32:51.348Z,5768.00
2018-05-07T11:33:51.360Z,5776.00
2018-05-07T11:34:51.375Z,5724.00
2018-05-07T11:35:51.389Z,5708.00
2018-05-07T11:36:51.399Z,5704.00
2018-05-07T11:37:51.408Z,5712.00
2018-05-07T11:38:51.419Z,5680.00
2018-05-07T11:39:51.428Z,5616.00
2018-05-07T11:40:51.440Z,5616.00
2018-05-07T11:41:51.452Z,5568.00
2018-05-07T11:42:51.464Z,5572.00
2018-05-07T11:43:51.474Z,5532.00
2018-05-07T11:44:51.484Z,5572.00
2018-05-07T11:45:51.496Z,5508.00
2018-05-07T11:46:51.508Z,5464.00
2018-05-07T11:47:51.517Z,5440.00
2018-05-07T11:48:51.528Z,5424.00
2018-05-07T11:49:51.539Z,5416.00
2018-05-07T11:50:51.550Z,5476.00
2018-05-07T11:51:51.561Z,5424.00
2018-05-07T11:52:51.572Z,5360.00
2018-05-07T11:53:51.585Z,5352.00
2018-05-07T11:54:51.593Z,5320.00
2018-05-07T11:55:51.603Z,5284.00
2018-05-07T11:56:51.613Z,5272.00
2018-05-07T11:57:51.623Z,5216.00
2018-05-07T11:58:51.634Z,5208.00
2018-05-07T11:59:51.643Z,5176.00
2018-05-07T12:00:51.654Z,5152.00
2018-05-07T12:01:51.665Z,5144.00
2018-05-07T12:02:51.677Z,5108.00
2018-05-07T12:03:51.684Z,5080.00
2018-05-07T12:04:51.696Z,5080.00
2018-05-07T12:05:51.705Z,5064.00
2018-05-07T12:06:51.716Z,5108.00
2018-05-07T12:07:51.725Z,5024.00
2018-05-07T12:08:51.736Z,5012.00
2018-05-07T12:09:51.746Z,4960.00
2018-05-07T12:10:51.755Z,4956.00
2018-05-07T12:11:51.765Z,4928.00
2018-05-07T12:12:51.775Z,4980.00
2018-05-07T12:13:51.786Z,4960.00
2018-05-07T12:14:51.796Z,4964.00
2018-05-07T12:15:51.901Z,4940.00
2018-05-07T12:16:51.815Z,4920.00
2018-05-07T12:17:51.825Z,4856.00
2018-05-07T12:18:51.834Z,4844.00
2018-05-07T12:19:51.845Z,4888.00
2018-05-07T12:20:51.855Z,4900.00
2018-05-07T12:21:51.865Z,4880.00